Terminal Aerodrome Forecast
Issued by NWS Charleston, WV

Current Version | Previous Version | Graphics & Text | Print | Product List | Glossary On
Versions: 1 2 3 4 5 6 7 8 9 10 11 12 13 14 15 16 17 18 19 20 21 22 23 24 25 26
699
FTUS41 KRLX 261736
TAFCRW
TAF
KCRW 261736Z 2618/2718 27011KT P6SM BKN060 BKN100
     FM261900 27009KT 5SM SHRA VCTS BKN035CB BKN100
     FM262100 09009KT P6SM BKN040 OVC100
      TEMPO 2621/2624 2SM SHRA OVC015
     FM270200 28004KT P6SM SCT010
     FM271700 24006KT P6SM SKC=

USA.gov is the U.S. government's official web portal to all federal, state and local government web resources and services.